Pagina principale
METAR-TAF:

METAR-TAF

Aeroporti :

Aeroporto di Ekaterinburg-Kol'covo

Ekaterinburg, Russia

latitudine: 56-50N, longitudine: 060-38E, altezza: 237 m

Osservazione

Il bollettino è stato emesso 25 minuti fa, alle 19:00 UTC
Vento 2 kt da direzioni variabili
Temperature 17°C
Umidità 82%
Pressione 1014 hPa
Visibilità 10 km o più
nessuna nube inferiore a 1500 m e nessun cumulonembo

METAR: USSS 171900Z VRB01MPS CAVOK 17/14 Q1014 R08L/010060 R08R/010060 NOSIG RMK QFE740/0987

Ora: 00:25 (19:25 UTC)

Previsione

Il bollettino è stato emesso 2 ore e 31 minuti fa, alle 16:54 UTC
Previsione valida dal 17 alle 18 UTC al 18 alle 18 UTC
Vento 6 kt da sud/sud-est
Visibilità 10 km o più
Nuvoloso ad un'altezza di 4000 ft
Evoluzione graduale
dal 18 alle 03 UTC al 18 alle 05 UTC
Vento 6 kt da est/sud-est con raffiche fino a 21 kt

TAF: USSS 171654Z 1718/1818 15003MPS 9999 BKN040 BECMG 1803/1805 12003G11MPS

Osservazioni e previsioni meteorologiche di più di 4000 aeroporti (messaggi METAR e TAF).

Le stazioni disponibili sono rappresentate dai dischi gialli e rossi sulla carta.

Puntare il mouse per vedere il nome della stazione.

Clicca sopra per visualizzare le osservazioni e previsioni meteorologiche.

Per cambiare la mappa : fare clic sui pulsanti verdi con una croce nera per ingrandire, il pulsante verde con un trattino per diminuire, o sulla freccia verde per le mappe adiacenti.


METAR-TAF: